Time;durP1;ratioP1;P1;durP2;ratioP2;P2;SDS_P1;SDS_P2;PMS_P1;PMS_P2;Temp;Humidity;BMP_temperature;BMP_pressure;BME280_temperature;BME280_humidity;BME280_pressure;Samples;Min_cycle;Max_cycle;Signal;HPM_P1;HPM_P2
2022/03/01 00:02:10;;;;;;;7.30;4.32;;;-0.70;93.10;;;;;;4962962;28;20507;-39
2022/03/01 00:04:36;;;;;;;13.40;5.53;;;-0.70;92.90;;;;;;4961909;28;20038;-38
2022/03/01 00:07:02;;;;;;;10.65;5.13;;;-0.70;93.20;;;;;;4965459;28;20042;-36
2022/03/01 00:09:27;;;;;;;10.68;5.32;;;-0.70;92.90;;;;;;4961015;28;20027;-39
2022/03/01 00:11:53;;;;;;;12.07;6.60;;;-0.70;93.40;;;;;;4961363;28;20377;-36
2022/03/01 00:14:21;;;;;;;7.18;4.85;;;-0.70;93.30;;;;;;4960638;28;20081;-36
2022/03/01 00:16:47;;;;;;;9.83;6.53;;;-0.70;92.60;;;;;;4968953;28;20035;-39
2022/03/01 00:19:12;;;;;;;10.75;6.38;;;-0.70;93.10;;;;;;4960591;28;20332;-39
2022/03/01 00:21:38;;;;;;;9.43;4.97;;;-0.70;92.50;;;;;;4963373;28;20944;-39
2022/03/01 00:24:04;;;;;;;10.65;6.13;;;-0.80;92.50;;;;;;4955732;28;20646;-36
2022/03/01 00:26:29;;;;;;;9.55;5.88;;;-0.80;92.90;;;;;;4966336;28;20049;-39
2022/03/01 00:28:55;;;;;;;10.63;5.28;;;-0.80;93.20;;;;;;4976387;28;20028;-36
2022/03/01 00:31:21;;;;;;;11.85;7.43;;;-0.80;93.30;;;;;;4963285;28;20027;-39
2022/03/01 00:33:47;;;;;;;11.02;5.50;;;-0.70;93.50;;;;;;4959829;28;20472;-38
2022/03/01 00:36:12;;;;;;;13.00;6.05;;;-0.80;93.10;;;;;;4965105;28;20039;-39
2022/03/01 00:38:38;;;;;;;12.07;6.15;;;-0.80;93.10;;;;;;4967606;28;20035;-37
2022/03/01 00:41:04;;;;;;;11.82;6.10;;;-0.80;93.50;;;;;;4960950;28;20685;-39
2022/03/01 00:43:29;;;;;;;12.25;6.18;;;-0.90;93.20;;;;;;4962268;28;20042;-39
2022/03/01 00:45:55;;;;;;;12.70;6.68;;;-0.90;93.40;;;;;;4961736;28;20027;-36
2022/03/01 00:48:22;;;;;;;11.15;5.15;;;-0.90;94.30;;;;;;4964040;28;20035;-36
2022/03/01 00:50:48;;;;;;;13.23;6.28;;;-0.90;93.50;;;;;;4963357;28;20061;-38
2022/03/01 00:53:14;;;;;;;13.73;5.88;;;-0.90;93.80;;;;;;4963770;28;20411;-39
2022/03/01 00:55:40;;;;;;;10.40;5.18;;;-1.00;93.60;;;;;;4963652;28;20038;-39
2022/03/01 00:58:06;;;;;;;11.98;6.47;;;-1.00;93.80;;;;;;4964799;28;20034;-37
2022/03/01 01:00:32;;;;;;;11.52;6.15;;;-1.10;93.80;;;;;;4963153;28;20178;-39
2022/03/01 01:02:59;;;;;;;8.27;5.13;;;-1.10;93.60;;;;;;4963397;28;21644;-38
2022/03/01 01:05:24;;;;;;;10.13;4.93;;;-1.20;93.70;;;;;;4961283;28;20026;-39
2022/03/01 01:07:51;;;;;;;9.82;5.72;;;-1.10;94.20;;;;;;4963821;28;20039;-37
2022/03/01 01:10:18;;;;;;;12.50;5.90;;;-1.20;94.00;;;;;;4972245;28;20111;-39
2022/03/01 01:12:44;;;;;;;12.75;6.82;;;-1.20;93.60;;;;;;4964753;28;20033;-39
2022/03/01 01:15:11;;;;;;;11.10;4.85;;;-1.20;94.20;;;;;;4959994;28;20027;-39
2022/03/01 01:17:37;;;;;;;11.52;5.32;;;-1.30;93.60;;;;;;4961413;28;20035;-39
2022/03/01 01:20:04;;;;;;;10.80;5.50;;;-1.30;93.70;;;;;;4962517;28;20042;-36
2022/03/01 01:22:42;;;;;;;12.30;6.40;;;-1.30;94.10;;;;;;4974343;28;20133;-39
2022/03/01 01:25:21;;;;;;;12.52;6.47;;;-1.30;94.00;;;;;;4959801;28;20110;-39
2022/03/01 01:27:50;;;;;;;11.18;5.55;;;-1.40;94.30;;;;;;4961264;28;20027;-39
2022/03/01 01:30:17;;;;;;;;;;;-1.40;94.10;;;;;;4964743;28;20058;-37
2022/03/01 01:32:44;;;;;;;7.03;4.72;;;-1.40;93.70;;;;;;4957114;28;19921;-37
2022/03/01 01:35:12;;;;;;;8.02;5.63;;;-1.40;93.90;;;;;;4955775;28;20502;-37
2022/03/01 01:37:39;;;;;;;6.93;5.03;;;-1.40;94.30;;;;;;4960801;28;20102;-35
2022/03/01 01:40:07;;;;;;;14.82;6.05;;;-1.50;94.00;;;;;;4965713;28;20531;-38
2022/03/01 01:42:33;;;;;;;10.15;5.38;;;-1.50;94.60;;;;;;4962036;28;20026;-39
2022/03/01 01:45:00;;;;;;;9.57;5.45;;;-1.50;94.70;;;;;;4963820;28;20571;-38
2022/03/01 01:47:26;;;;;;;11.68;5.38;;;-1.50;94.60;;;;;;4963005;28;20031;-35
2022/03/01 01:49:51;;;;;;;11.88;5.47;;;-1.60;94.80;;;;;;4963030;28;21677;-39
2022/03/01 01:52:17;;;;;;;9.77;6.65;;;-1.60;95.10;;;;;;4953340;28;20496;-39
2022/03/01 01:54:43;;;;;;;11.85;5.13;;;-1.70;95.30;;;;;;4961268;28;20078;-39
2022/03/01 01:57:14;;;;;;;8.90;5.55;;;-1.70;96.10;;;;;;4957591;28;20031;-38
2022/03/01 01:59:39;;;;;;;9.93;5.93;;;-1.80;96.20;;;;;;4960861;28;20028;-37
2022/03/01 02:02:05;;;;;;;11.70;6.40;;;-1.80;97.10;;;;;;4962048;28;20516;-39
2022/03/01 02:04:31;;;;;;;12.07;5.55;;;-1.90;97.30;;;;;;4965682;28;20034;-39
2022/03/01 02:06:57;;;;;;;11.38;5.18;;;-2.00;97.50;;;;;;4958712;28;20447;-37
2022/03/01 02:09:22;;;;;;;10.27;6.07;;;-2.10;97.90;;;;;;4964965;28;20133;-39
2022/03/01 02:11:48;;;;;;;9.27;5.72;;;-2.20;98.50;;;;;;4963164;28;20027;-37
2022/03/01 02:14:13;;;;;;;10.20;5.93;;;-2.10;98.40;;;;;;4961569;28;20023;-38
2022/03/01 02:16:41;;;;;;;9.48;5.22;;;-2.10;98.40;;;;;;4962591;28;20031;-39
2022/03/01 02:19:11;;;;;;;13.15;5.53;;;-2.10;97.30;;;;;;4962510;28;20118;-39
2022/03/01 02:21:44;;;;;;;12.57;5.55;;;-2.10;96.90;;;;;;4959439;28;20534;-37
2022/03/01 02:24:09;;;;;;;11.13;6.32;;;-2.20;97.20;;;;;;4976043;28;20130;-38
2022/03/01 02:26:35;;;;;;;8.05;5.05;;;-2.10;96.80;;;;;;4961213;28;20155;-38
2022/03/01 02:29:01;;;;;;;12.32;6.20;;;-2.20;97.10;;;;;;4961973;28;20042;-38
2022/03/01 02:31:26;;;;;;;10.95;5.63;;;-2.20;97.10;;;;;;4960634;28;20042;-36
2022/03/01 02:33:52;;;;;;;10.38;5.55;;;-2.10;96.90;;;;;;4960958;28;20033;-39
2022/03/01 02:36:17;;;;;;;9.45;5.45;;;-2.20;96.90;;;;;;4958378;28;20050;-36
2022/03/01 02:38:43;;;;;;;10.23;5.10;;;-2.20;96.70;;;;;;4966831;28;20096;-39
2022/03/01 02:41:08;;;;;;;9.55;5.25;;;-2.10;96.70;;;;;;4961975;28;20039;-38
2022/03/01 02:43:34;;;;;;;10.05;4.95;;;-2.10;96.50;;;;;;4961389;28;20117;-38
2022/03/01 02:46:00;;;;;;;5.15;4.00;;;-2.10;96.20;;;;;;4962780;28;20030;-38
2022/03/01 02:48:25;;;;;;;8.27;4.75;;;-2.10;96.30;;;;;;4960749;28;20187;-36
2022/03/01 02:50:51;;;;;;;9.25;5.45;;;-2.00;96.50;;;;;;4960970;28;20081;-38
2022/03/01 02:53:17;;;;;;;9.60;5.25;;;-2.00;96.30;;;;;;4960374;28;20638;-35
2022/03/01 02:55:42;;;;;;;8.13;4.65;;;-2.10;95.50;;;;;;4961104;28;20077;-37
2022/03/01 02:58:08;;;;;;;10.00;5.25;;;-2.10;95.80;;;;;;4958667;28;20090;-37
2022/03/01 03:00:34;;;;;;;8.35;4.68;;;-2.20;96.10;;;;;;4955782;28;20074;-39
2022/03/01 03:02:59;;;;;;;7.75;5.50;;;-2.20;96.30;;;;;;4953415;28;20061;-39
2022/03/01 03:05:25;;;;;;;5.95;5.22;;;-2.10;96.60;;;;;;4958244;28;20030;-37
2022/03/01 03:07:50;;;;;;;6.90;5.50;;;-2.10;96.30;;;;;;4959187;28;20066;-39
2022/03/01 03:10:16;;;;;;;8.50;4.85;;;-2.20;96.40;;;;;;4960966;28;20326;-38
2022/03/01 03:12:43;;;;;;;10.07;5.60;;;-2.20;96.80;;;;;;4960282;28;20035;-39
2022/03/01 03:15:09;;;;;;;8.50;5.72;;;-2.30;97.30;;;;;;4961812;28;20023;-36
2022/03/01 03:17:36;;;;;;;7.05;4.75;;;-2.30;97.40;;;;;;4960120;28;20830;-36
2022/03/01 03:20:03;;;;;;;9.70;4.90;;;-2.40;97.60;;;;;;4961557;28;20035;-37
2022/03/01 03:22:29;;;;;;;12.25;5.03;;;-2.40;97.70;;;;;;4960586;28;20061;-39
2022/03/01 03:24:55;;;;;;;6.45;5.22;;;-2.30;97.80;;;;;;4960844;28;20038;-39
2022/03/01 03:27:21;;;;;;;5.05;4.38;;;-2.30;98.30;;;;;;4962244;28;20062;-36
2022/03/01 03:29:47;;;;;;;12.75;5.28;;;-2.30;97.70;;;;;;4959164;28;20141;-37
2022/03/01 03:32:12;;;;;;;7.25;4.93;;;-2.50;98.40;;;;;;4959196;28;20049;-36
2022/03/01 03:34:38;;;;;;;9.85;5.78;;;-2.60;98.80;;;;;;4960209;28;20031;-39
2022/03/01 03:37:04;;;;;;;5.35;4.35;;;-2.60;99.40;;;;;;4959050;28;20031;-37
2022/03/01 03:39:29;;;;;;;9.07;5.05;;;-2.60;99.40;;;;;;4960346;28;20161;-39
2022/03/01 03:41:56;;;;;;;8.32;5.32;;;-2.70;99.90;;;;;;4959938;28;20514;-38
2022/03/01 03:44:21;;;;;;;11.75;4.32;;;-2.60;99.90;;;;;;4959418;28;20086;-39
2022/03/01 03:46:47;;;;;;;7.05;4.43;;;-2.60;99.70;;;;;;4973742;28;20062;-39
2022/03/01 03:49:13;;;;;;;10.48;4.70;;;-2.50;99.10;;;;;;4959622;28;20448;-39
2022/03/01 03:51:38;;;;;;;9.63;5.68;;;-2.50;98.70;;;;;;4962911;28;20047;-35
2022/03/01 03:54:04;;;;;;;7.72;6.43;;;-2.40;98.60;;;;;;4961203;28;20395;-36
2022/03/01 03:56:30;;;;;;;10.80;5.95;;;-2.40;98.90;;;;;;4960389;28;20172;-38
2022/03/01 03:58:57;;;;;;;15.77;5.75;;;-2.40;98.00;;;;;;4959504;28;20129;-39
2022/03/01 04:01:23;;;;;;;11.38;6.57;;;-2.50;98.00;;;;;;4957525;28;20494;-38
2022/03/01 04:03:50;;;;;;;9.05;5.35;;;-2.80;98.60;;;;;;4959462;28;20118;-36
2022/03/01 04:06:16;;;;;;;16.05;5.68;;;-2.90;99.50;;;;;;4960252;28;20456;-37
2022/03/01 04:08:42;;;;;;;8.13;5.13;;;-3.10;99.90;;;;;;4960992;28;20027;-38
2022/03/01 04:11:07;;;;;;;8.57;6.07;;;-3.30;99.90;;;;;;4959184;28;20030;-38
2022/03/01 04:13:33;;;;;;;13.35;5.88;;;-3.40;99.90;;;;;;4959605;28;20026;-39
2022/03/01 04:15:59;;;;;;;8.57;5.50;;;-3.50;99.90;;;;;;4959711;28;20034;-39
2022/03/01 04:18:24;;;;;;;7.00;5.00;;;-3.50;99.90;;;;;;4959508;28;20094;-39
2022/03/01 04:20:50;;;;;;;8.20;4.85;;;-3.30;99.90;;;;;;4960818;28;20962;-39
2022/03/01 04:23:16;;;;;;;6.72;4.82;;;-3.20;99.90;;;;;;4959702;28;20044;-39
2022/03/01 04:25:42;;;;;;;6.57;4.18;;;-3.20;99.90;;;;;;4960492;28;20035;-36
2022/03/01 04:28:08;;;;;;;7.90;5.63;;;-3.10;99.90;;;;;;4959968;28;20035;-39
2022/03/01 04:30:34;;;;;;;6.18;5.05;;;-3.00;99.90;;;;;;4958451;28;20103;-37
2022/03/01 04:33:00;;;;;;;11.13;6.55;;;-2.90;99.90;;;;;;4959699;28;20038;-39
2022/03/01 04:35:27;;;;;;;8.02;6.10;;;-3.00;99.90;;;;;;4960834;28;20031;-37
2022/03/01 04:37:53;;;;;;;7.00;5.25;;;-3.10;99.90;;;;;;4960385;28;20046;-39
2022/03/01 04:40:19;;;;;;;9.80;5.35;;;-3.20;99.90;;;;;;4961248;28;20027;-37
2022/03/01 04:42:45;;;;;;;8.43;5.32;;;-3.20;99.90;;;;;;4959355;28;20027;-38
2022/03/01 04:45:11;;;;;;;8.85;5.63;;;-3.20;99.90;;;;;;4958634;28;20400;-39
2022/03/01 04:47:38;;;;;;;6.88;4.97;;;-3.10;99.90;;;;;;4958968;28;20046;-37
2022/03/01 04:50:05;;;;;;;10.90;5.47;;;-3.10;99.90;;;;;;4958842;28;20027;-38
2022/03/01 04:52:31;;;;;;;8.90;5.72;;;-3.10;99.90;;;;;;4972519;28;20654;-39
2022/03/01 04:54:57;;;;;;;11.20;5.50;;;-3.00;99.90;;;;;;4960486;28;20030;-38
2022/03/01 04:57:23;;;;;;;9.95;4.88;;;-2.90;99.90;;;;;;4960918;28;20085;-39
2022/03/01 04:59:48;;;;;;;9.50;5.05;;;-2.90;99.90;;;;;;4961719;28;20065;-39
2022/03/01 05:02:14;;;;;;;6.28;4.70;;;-2.90;99.90;;;;;;4957686;28;20050;-39
2022/03/01 05:04:40;;;;;;;11.68;5.65;;;-2.90;99.90;;;;;;4955052;28;20134;-37
2022/03/01 05:07:05;;;;;;;9.60;5.28;;;-3.10;99.40;;;;;;4962090;28;20057;-39
2022/03/01 05:09:31;;;;;;;10.02;6.47;;;-3.30;99.90;;;;;;4959868;28;20030;-36
2022/03/01 05:11:56;;;;;;;11.07;6.25;;;-3.40;99.90;;;;;;4955499;28;20484;-38
2022/03/01 05:14:22;;;;;;;13.80;6.93;;;-3.40;99.90;;;;;;4960478;28;20046;-39
2022/03/01 05:16:48;;;;;;;9.45;6.50;;;-3.50;99.90;;;;;;4958502;28;20038;-37
2022/03/01 05:19:14;;;;;;;6.93;5.95;;;-3.60;99.90;;;;;;4972874;28;20100;-39
2022/03/01 05:21:40;;;;;;;8.95;5.72;;;-3.60;99.90;;;;;;4959618;28;20710;-36
2022/03/01 05:24:06;;;;;;;9.77;5.38;;;-3.70;99.90;;;;;;4956405;28;20034;-39
2022/03/01 05:26:32;;;;;;;9.63;5.18;;;-3.70;99.90;;;;;;4961518;28;20046;-36
2022/03/01 05:28:58;;;;;;;7.95;5.72;;;-3.70;99.90;;;;;;4958347;28;20034;-39
2022/03/01 05:31:23;;;;;;;8.55;5.63;;;-3.80;99.90;;;;;;4954848;28;20118;-37
2022/03/01 05:33:50;;;;;;;9.98;5.10;;;-3.80;99.90;;;;;;4958649;28;20027;-39
2022/03/01 05:36:15;;;;;;;6.03;4.53;;;-3.60;99.90;;;;;;4958830;28;20041;-38
2022/03/01 05:38:42;;;;;;;7.72;4.93;;;-3.60;99.90;;;;;;4958423;28;20034;-39
2022/03/01 05:41:08;;;;;;;4.88;4.45;;;-3.50;99.90;;;;;;4960028;28;20106;-39
2022/03/01 05:43:33;;;;;;;6.32;4.40;;;-3.40;99.90;;;;;;4958308;28;20030;-37
2022/03/01 05:45:59;;;;;;;12.57;5.25;;;-3.40;99.90;;;;;;4958469;28;20043;-38
2022/03/01 05:48:26;;;;;;;10.40;4.50;;;-3.40;99.90;;;;;;4957569;28;20022;-39
2022/03/01 05:50:52;;;;;;;6.18;3.88;;;-3.40;99.90;;;;;;4957679;28;20042;-38
2022/03/01 05:53:18;;;;;;;11.27;5.80;;;-3.40;99.90;;;;;;4962017;28;20049;-39
2022/03/01 05:55:43;;;;;;;8.40;5.25;;;-3.50;99.90;;;;;;4957110;28;20363;-38
2022/03/01 05:58:09;;;;;;;9.02;6.13;;;-3.50;99.90;;;;;;4956860;28;20061;-39
2022/03/01 06:00:35;;;;;;;6.60;3.97;;;-3.50;99.70;;;;;;4971724;28;20038;-39
2022/03/01 06:03:00;;;;;;;10.48;4.57;;;-3.70;99.90;;;;;;4958600;28;20031;-39
2022/03/01 06:05:28;;;;;;;7.50;4.85;;;-3.60;99.90;;;;;;4959062;28;20029;-39
2022/03/01 06:07:54;;;;;;;6.05;4.20;;;-3.70;99.90;;;;;;4959050;28;20050;-39
2022/03/01 06:10:20;;;;;;;7.25;4.53;;;-3.90;99.90;;;;;;4957603;28;20566;-38
2022/03/01 06:12:45;;;;;;;11.40;5.63;;;-3.90;99.90;;;;;;4956853;28;20023;-37
2022/03/01 06:15:11;;;;;;;11.20;5.60;;;-4.00;99.90;;;;;;4955445;28;20030;-36
2022/03/01 06:17:37;;;;;;;10.50;6.35;;;-4.00;99.90;;;;;;4959398;28;20093;-36
2022/03/01 06:20:04;;;;;;;12.23;6.85;;;-4.00;99.90;;;;;;4958628;28;20118;-39
2022/03/01 06:22:30;;;;;;;7.10;4.80;;;-4.00;99.90;;;;;;4957921;28;20638;-39
2022/03/01 06:24:55;;;;;;;10.52;5.53;;;-4.00;99.90;;;;;;4957326;28;20027;-38
2022/03/01 06:27:22;;;;;;;4.30;3.90;;;-4.10;99.90;;;;;;4961469;28;20043;-39
2022/03/01 06:29:48;;;;;;;28.13;5.43;;;-4.10;99.90;;;;;;4955373;28;20027;-39
2022/03/01 06:32:14;;;;;;;10.88;5.03;;;-4.00;99.90;;;;;;4956467;28;20069;-39
2022/03/01 06:34:40;;;;;;;5.75;4.88;;;-4.00;99.90;;;;;;4958082;28;20092;-39
2022/03/01 06:37:12;;;;;;;5.68;4.55;;;-4.10;99.90;;;;;;4957598;28;20050;-38
2022/03/01 06:39:40;;;;;;;8.35;5.00;;;-4.00;99.90;;;;;;4959490;28;20035;-36
2022/03/01 06:42:05;;;;;;;12.18;6.38;;;-4.10;99.90;;;;;;4961906;28;20066;-39
2022/03/01 06:44:31;;;;;;;7.00;5.25;;;-4.10;99.90;;;;;;4961655;28;21042;-37
2022/03/01 06:46:57;;;;;;;7.00;4.68;;;-4.10;99.90;;;;;;4962764;28;20027;-38
2022/03/01 06:49:22;;;;;;;8.55;6.28;;;-4.00;99.90;;;;;;4960212;28;20045;-36
2022/03/01 06:51:48;;;;;;;8.90;5.90;;;-4.10;99.90;;;;;;4960418;28;20051;-37
2022/03/01 06:54:13;;;;;;;12.82;6.32;;;-3.90;99.90;;;;;;4961823;28;20102;-39
2022/03/01 06:56:39;;;;;;;11.80;5.50;;;-3.90;99.90;;;;;;4959815;28;20070;-37
2022/03/01 06:59:05;;;;;;;19.63;4.93;;;-3.90;99.90;;;;;;4962719;28;20045;-36
2022/03/01 07:01:30;;;;;;;21.48;5.38;;;-3.90;99.90;;;;;;4961120;28;20039;-39
2022/03/01 07:03:56;;;;;;;12.77;5.75;;;-3.80;99.90;;;;;;4960024;28;20038;-39
2022/03/01 07:06:22;;;;;;;11.65;5.90;;;-3.80;99.90;;;;;;4961516;28;20472;-37
2022/03/01 07:08:50;;;;;;;9.52;6.38;;;-3.80;99.90;;;;;;4961722;28;20038;-37
2022/03/01 07:11:16;;;;;;;8.18;5.40;;;-3.80;99.90;;;;;;4959044;28;20034;-36
2022/03/01 07:13:42;;;;;;;13.55;6.55;;;-3.70;99.90;;;;;;4960426;28;20041;-38
2022/03/01 07:16:07;;;;;;;10.07;4.72;;;-3.70;99.90;;;;;;4957948;28;20038;-39
2022/03/01 07:18:33;;;;;;;9.35;5.95;;;-3.60;99.90;;;;;;4962655;28;20251;-39
2022/03/01 07:20:59;;;;;;;6.43;4.85;;;-3.50;99.90;;;;;;4959632;28;20061;-39
2022/03/01 07:23:25;;;;;;;16.33;6.55;;;-3.30;99.90;;;;;;4961105;28;20062;-38
2022/03/01 07:25:50;;;;;;;6.13;4.20;;;-3.20;99.90;;;;;;4960984;28;20038;-38
2022/03/01 07:28:16;;;;;;;5.95;4.28;;;-3.20;99.90;;;;;;4960226;28;20080;-39
2022/03/01 07:30:42;;;;;;;10.45;5.88;;;-3.00;99.90;;;;;;4958805;28;20660;-38
2022/03/01 07:33:07;;;;;;;7.53;4.43;;;-2.90;99.90;;;;;;4962497;28;20027;-37
2022/03/01 07:35:33;;;;;;;5.32;3.40;;;-2.90;99.90;;;;;;4961159;28;20396;-39
2022/03/01 07:37:59;;;;;;;6.50;4.43;;;-2.80;99.90;;;;;;4961267;28;20146;-38
2022/03/01 07:40:26;;;;;;;5.82;3.80;;;-2.70;99.90;;;;;;4963120;28;20031;-39
2022/03/01 07:42:53;;;;;;;6.78;3.30;;;-2.50;99.90;;;;;;4960715;28;20058;-39
2022/03/01 07:45:19;;;;;;;9.57;4.88;;;-2.40;99.90;;;;;;4961197;28;20031;-39
2022/03/01 07:47:45;;;;;;;7.55;5.05;;;-2.30;99.90;;;;;;4962320;28;20050;-39
2022/03/01 07:50:11;;;;;;;6.47;4.13;;;-2.20;99.90;;;;;;4959950;28;20030;-36
2022/03/01 07:52:37;;;;;;;7.03;4.57;;;-2.10;99.90;;;;;;4962676;28;20100;-36
2022/03/01 07:55:04;;;;;;;6.38;4.60;;;-2.10;99.90;;;;;;4956715;28;20035;-37
2022/03/01 07:57:30;;;;;;;11.50;4.65;;;-2.00;99.90;;;;;;4960851;28;20408;-38
2022/03/01 07:59:56;;;;;;;7.15;4.80;;;-2.00;99.90;;;;;;4961483;28;20033;-38
2022/03/01 08:02:21;;;;;;;5.43;3.63;;;-1.90;99.60;;;;;;4959273;28;20075;-39
2022/03/01 08:04:47;;;;;;;8.50;4.43;;;-1.80;99.20;;;;;;4960068;28;20442;-36
2022/03/01 08:07:12;;;;;;;8.68;5.38;;;-1.70;99.70;;;;;;4960671;28;20035;-37
2022/03/01 08:09:40;;;;;;;9.82;5.60;;;-1.60;99.90;;;;;;4956798;28;20026;-37
2022/03/01 08:12:07;;;;;;;6.57;4.63;;;-1.50;98.70;;;;;;4959008;28;20105;-39
2022/03/01 08:14:34;;;;;;;5.15;3.47;;;-1.40;99.00;;;;;;4956463;28;20111;-39
2022/03/01 08:17:01;;;;;;;6.25;4.07;;;-1.30;99.00;;;;;;4959190;28;20056;-36
2022/03/01 08:19:26;;;;;;;10.73;5.50;;;-1.20;97.80;;;;;;4960893;28;20026;-38
2022/03/01 08:21:52;;;;;;;9.88;4.78;;;-1.10;96.30;;;;;;4957417;28;20042;-39
2022/03/01 08:24:18;;;;;;;6.13;4.03;;;-1.00;96.20;;;;;;4959511;28;20132;-37
2022/03/01 08:26:44;;;;;;;7.45;5.32;;;-0.90;96.20;;;;;;4959665;28;20039;-39
2022/03/01 08:29:09;;;;;;;10.35;5.07;;;-0.80;95.20;;;;;;4958424;28;20134;-37
2022/03/01 08:31:39;;;;;;;5.80;4.22;;;-0.70;94.80;;;;;;4959387;28;20613;-38
2022/03/01 08:34:05;;;;;;;4.70;3.50;;;-0.60;95.60;;;;;;4956211;28;20061;-37
2022/03/01 08:36:31;;;;;;;7.43;4.68;;;-0.40;93.70;;;;;;4958013;28;20109;-38
2022/03/01 08:38:56;;;;;;;6.70;4.07;;;-0.30;94.50;;;;;;4959999;28;20038;-39
2022/03/01 08:41:23;;;;;;;7.60;4.32;;;-0.10;94.90;;;;;;4957214;28;20039;-38
2022/03/01 08:43:49;;;;;;;6.20;4.45;;;-0.10;90.80;;;;;;4956966;28;20034;-38
2022/03/01 08:46:15;;;;;;;7.68;4.50;;;-0.10;93.30;;;;;;4959746;28;20043;-35
2022/03/01 08:48:41;;;;;;;7.13;4.63;;;0.10;89.10;;;;;;4958916;28;20130;-36
2022/03/01 08:51:06;;;;;;;7.43;3.95;;;0.20;88.00;;;;;;4961007;28;20039;-39
2022/03/01 08:53:32;;;;;;;8.15;4.88;;;0.30;89.30;;;;;;4958992;28;20546;-39
2022/03/01 08:55:59;;;;;;;7.57;4.50;;;0.40;85.70;;;;;;4959427;28;20031;-39
2022/03/01 08:58:25;;;;;;;8.05;5.20;;;0.40;85.90;;;;;;4957900;28;20081;-39
2022/03/01 09:00:51;;;;;;;10.82;5.97;;;0.40;82.10;;;;;;4954753;28;20464;-39
2022/03/01 09:03:17;;;;;;;9.75;5.28;;;0.60;83.10;;;;;;4959788;28;20034;-39
2022/03/01 09:05:43;;;;;;;9.90;5.47;;;0.60;85.70;;;;;;4960948;28;20444;-38
2022/03/01 09:08:12;;;;;;;7.93;5.05;;;0.70;79.40;;;;;;4966683;28;20158;-39
2022/03/01 09:10:39;;;;;;;9.07;5.78;;;0.70;83.50;;;;;;4961171;28;20643;-36
2022/03/01 09:13:04;;;;;;;13.48;5.38;;;0.90;82.60;;;;;;4965947;28;20019;-36
2022/03/01 09:15:32;;;;;;;11.80;5.05;;;1.00;77.70;;;;;;4960781;28;20046;-38
2022/03/01 09:17:59;;;;;;;6.38;4.95;;;1.20;81.50;;;;;;4966500;28;20030;-38
2022/03/01 09:20:25;;;;;;;11.98;5.90;;;1.30;77.40;;;;;;4962342;28;20042;-36
2022/03/01 09:22:53;;;;;;;9.07;4.28;;;1.30;77.90;;;;;;4965338;28;20033;-38
2022/03/01 09:25:18;;;;;;;9.73;4.50;;;1.30;73.80;;;;;;4961317;28;20027;-37
2022/03/01 09:27:44;;;;;;;11.27;5.35;;;1.40;71.60;;;;;;4961607;28;20053;-38
2022/03/01 09:30:10;;;;;;;8.32;4.80;;;1.40;68.10;;;;;;4965102;28;20023;-39
2022/03/01 09:32:36;;;;;;;8.98;4.93;;;1.50;69.30;;;;;;4964147;28;20074;-36
2022/03/01 09:35:02;;;;;;;7.85;4.90;;;1.50;69.50;;;;;;4960494;28;20126;-39
2022/03/01 09:37:31;;;;;;;7.97;4.28;;;1.70;71.10;;;;;;4963026;28;20483;-37
2022/03/01 09:39:58;;;;;;;7.93;5.45;;;1.80;68.30;;;;;;4964708;28;20051;-37
2022/03/01 09:42:25;;;;;;;7.45;4.78;;;2.00;64.80;;;;;;4963842;28;20042;-39
2022/03/01 09:44:51;;;;;;;9.15;4.82;;;2.10;63.40;;;;;;4964258;28;20026;-38
2022/03/01 09:47:17;;;;;;;10.38;4.68;;;2.30;60.90;;;;;;4962859;28;20034;-37
2022/03/01 09:49:42;;;;;;;7.90;5.57;;;2.30;62.60;;;;;;4962580;28;20041;-38
2022/03/01 09:52:08;;;;;;;11.80;5.72;;;2.30;62.70;;;;;;4963033;28;20042;-39
2022/03/01 09:54:34;;;;;;;6.60;4.20;;;2.40;62.50;;;;;;4957748;28;20054;-39
2022/03/01 09:56:59;;;;;;;10.63;5.30;;;2.40;61.80;;;;;;4964770;28;20058;-37
2022/03/01 09:59:25;;;;;;;12.50;5.35;;;2.60;63.40;;;;;;4963089;28;20078;-37
2022/03/01 10:01:52;;;;;;;9.00;5.53;;;2.60;64.30;;;;;;4961198;28;20101;-39
2022/03/01 10:04:19;;;;;;;10.68;5.63;;;2.70;62.00;;;;;;4957504;28;20035;-38
2022/03/01 10:06:47;;;;;;;6.18;4.38;;;2.50;64.70;;;;;;4958282;28;20032;-37
2022/03/01 10:09:13;;;;;;;14.45;5.78;;;2.50;59.80;;;;;;4954923;28;20881;-39
2022/03/01 10:11:39;;;;;;;9.68;5.43;;;2.70;61.80;;;;;;4954967;28;20034;-38
2022/03/01 10:14:05;;;;;;;9.73;5.60;;;2.70;60.40;;;;;;4959151;28;20022;-39
2022/03/01 10:16:39;;;;;;;10.75;5.95;;;2.70;60.60;;;;;;4956772;28;20107;-39
2022/03/01 10:19:14;;;;;;;8.55;5.57;;;2.90;62.40;;;;;;4960517;28;20046;-39
2022/03/01 10:21:39;;;;;;;10.60;5.20;;;3.00;62.50;;;;;;4959621;28;20459;-38
2022/03/01 10:24:07;;;;;;;11.00;6.00;;;3.00;58.60;;;;;;4960875;28;20039;-39
2022/03/01 10:26:33;;;;;;;8.10;5.70;;;3.20;59.50;;;;;;4960862;28;20065;-39
2022/03/01 10:29:00;;;;;;;8.52;4.82;;;3.20;60.00;;;;;;4960706;28;20122;-39
2022/03/01 10:31:30;;;;;;;11.18;5.53;;;3.20;60.30;;;;;;4964079;28;20538;-38
2022/03/01 10:34:00;;;;;;;7.80;5.25;;;3.40;61.00;;;;;;4962736;28;20121;-37
2022/03/01 10:36:31;;;;;;;9.88;5.60;;;3.50;58.40;;;;;;4961852;28;20042;-39
2022/03/01 10:39:28;;;;;;;9.25;5.88;;;3.70;56.30;;;;;;4960286;28;20034;-36
2022/03/01 10:41:54;;;;;;;8.52;4.15;;;3.40;55.70;;;;;;4961623;28;20039;-39
2022/03/01 10:44:23;;;;;;;8.02;5.40;;;3.40;56.10;;;;;;4974499;28;20320;-38
2022/03/01 10:46:52;;;;;;;9.65;5.22;;;3.40;55.70;;;;;;4961791;28;20038;-38
2022/03/01 10:49:25;;;;;;;10.27;6.07;;;3.30;55.90;;;;;;4961891;28;20031;-40
2022/03/01 10:51:51;;;;;;;10.48;6.10;;;3.40;55.50;;;;;;4960411;28;20072;-39
2022/03/01 10:54:32;;;;;;;10.27;5.35;;;3.70;56.40;;;;;;4961887;28;20049;-39
2022/03/01 10:56:59;;;;;;;10.50;6.07;;;3.70;56.10;;;;;;4961001;28;20034;-40
2022/03/01 10:59:27;;;;;;;11.93;5.18;;;3.60;55.50;;;;;;4961938;28;20042;-39
2022/03/01 11:01:54;;;;;;;9.10;5.57;;;3.70;56.30;;;;;;4959659;28;20042;-39
2022/03/01 11:04:25;;;;;;;13.27;6.13;;;3.60;57.40;;;;;;4961614;28;20034;-39
2022/03/01 11:06:55;;;;;;;9.77;4.78;;;3.80;56.50;;;;;;4962740;28;20066;-38
2022/03/01 11:09:25;;;;;;;9.73;4.82;;;3.80;55.70;;;;;;4963381;28;20035;-38
2022/03/01 11:11:52;;;;;;;10.65;5.80;;;3.90;55.30;;;;;;4961355;28;20027;-36
2022/03/01 11:14:32;;;;;;;10.77;6.20;;;4.10;56.30;;;;;;4959464;28;20034;-39
2022/03/01 11:17:30;;;;;;;8.93;5.28;;;4.00;59.50;;;;;;4960497;28;20395;-38
2022/03/01 11:20:04;;;;;;;9.50;6.32;;;4.00;55.00;;;;;;4963391;28;20050;-39
2022/03/01 11:22:46;;;;;;;10.43;5.85;;;4.10;57.40;;;;;;4960412;28;22203;-39
2022/03/01 11:25:15;;;;;;;7.10;4.97;;;4.20;58.00;;;;;;4961195;28;20026;-39
2022/03/01 11:27:50;;;;;;;10.38;5.32;;;4.20;57.30;;;;;;4962353;28;20508;-37
2022/03/01 11:30:17;;;;;;;8.13;5.35;;;4.10;58.40;;;;;;4961574;28;20045;-39
2022/03/01 11:32:45;;;;;;;9.15;5.97;;;4.10;55.80;;;;;;4959595;28;20041;-36
2022/03/01 11:35:24;;;;;;;9.88;5.55;;;4.00;56.60;;;;;;4962712;28;20027;-39
2022/03/01 11:37:58;;;;;;;;;;;3.90;56.20;;;;;;4962496;28;20043;-36
2022/03/01 11:40:24;;;;;;;7.50;5.22;;;4.10;59.40;;;;;;4964167;28;19914;-39
2022/03/01 11:42:51;;;;;;;10.85;5.55;;;4.40;59.50;;;;;;4961169;28;20403;-38
2022/03/01 11:45:17;;;;;;;7.90;5.40;;;4.40;62.30;;;;;;4961969;28;20031;-39
2022/03/01 11:47:43;;;;;;;8.65;5.07;;;4.50;55.40;;;;;;4962923;28;20139;-39
2022/03/01 11:50:18;;;;;;;10.32;5.47;;;4.30;55.40;;;;;;4964575;28;20543;-39
2022/03/01 11:53:00;;;;;;;8.65;5.32;;;4.40;58.80;;;;;;4963706;28;20054;-40
2022/03/01 11:55:47;;;;;;;9.70;5.50;;;4.40;59.60;;;;;;4959749;28;20459;-38
2022/03/01 11:58:14;;;;;;;10.50;5.82;;;4.40;56.10;;;;;;4961145;28;20035;-40
2022/03/01 12:00:40;;;;;;;7.38;5.20;;;4.40;55.80;;;;;;4961160;28;20046;-36
2022/03/01 12:03:10;;;;;;;10.30;6.22;;;4.50;54.70;;;;;;4962672;28;20030;-39
2022/03/01 12:05:37;;;;;;;7.72;4.70;;;4.50;55.10;;;;;;4959265;28;20034;-36
2022/03/01 12:08:06;;;;;;;11.23;6.03;;;4.40;52.10;;;;;;4962266;28;20038;-36
2022/03/01 12:10:32;;;;;;;7.22;5.30;;;4.30;54.20;;;;;;4962144;28;20400;-37
2022/03/01 12:12:58;;;;;;;7.43;5.30;;;4.30;52.20;;;;;;4959192;28;20022;-38
2022/03/01 12:15:29;;;;;;;9.85;5.63;;;4.40;59.90;;;;;;4964035;28;20054;-37
2022/03/01 12:17:55;;;;;;;8.50;5.35;;;4.40;54.50;;;;;;4960447;28;20042;-39
2022/03/01 12:20:22;;;;;;;9.40;4.97;;;4.60;58.40;;;;;;4960672;28;20484;-39
2022/03/01 12:23:01;;;;;;;9.82;5.65;;;4.70;54.80;;;;;;4962931;28;20054;-38
2022/03/01 12:25:30;;;;;;;12.50;5.60;;;4.70;55.80;;;;;;4963103;28;20031;-38
2022/03/01 12:27:56;;;;;;;8.70;5.30;;;4.80;55.30;;;;;;4959442;28;20039;-36
2022/03/01 12:30:25;;;;;;;12.20;5.63;;;4.80;56.00;;;;;;4960082;28;20037;-36
2022/03/01 12:32:58;;;;;;;9.15;5.03;;;4.90;56.60;;;;;;4960801;28;20500;-37
2022/03/01 12:35:27;;;;;;;10.15;5.40;;;5.00;58.00;;;;;;4958856;28;20053;-38
2022/03/01 12:37:53;;;;;;;9.57;5.72;;;4.90;56.70;;;;;;4962871;28;20394;-37
2022/03/01 12:40:30;;;;;;;11.70;4.80;;;5.00;54.00;;;;;;4959978;28;20030;-39
2022/03/01 12:43:03;;;;;;;8.95;5.18;;;4.80;53.10;;;;;;4961429;28;20043;-37
2022/03/01 12:45:39;;;;;;;9.00;5.32;;;5.00;54.90;;;;;;4957979;28;20395;-39